sensor_id;sensor_type;location;lat;lon;timestamp;pressure;altitude;pressure_sealevel;temperature;humidity
22930;BME280;11630;42.660;23.292;2023-04-21T00:01:38;68815.39;;;11.66;92.88
22930;BME280;11630;42.660;23.292;2023-04-21T00:04:10;68822.73;;;11.69;92.26
22930;BME280;11630;42.660;23.292;2023-04-21T00:06:41;68817.55;;;11.65;92.33
22930;BME280;11630;42.660;23.292;2023-04-21T00:09:12;68818.65;;;11.64;92.24
22930;BME280;11630;42.660;23.292;2023-04-21T00:11:43;68814.03;;;11.61;92.55
22930;BME280;11630;42.660;23.292;2023-04-21T00:14:14;68799.88;;;11.53;93.08
22930;BME280;11630;42.660;23.292;2023-04-21T00:16:45;68812.92;;;11.55;93.34
22930;BME280;11630;42.660;23.292;2023-04-21T00:19:16;68805.59;;;11.57;92.71
22930;BME280;11630;42.660;23.292;2023-04-21T00:21:47;68811.84;;;11.59;92.77
22930;BME280;11630;42.660;23.292;2023-04-21T00:24:18;68807.77;;;11.59;92.65
22930;BME280;11630;42.660;23.292;2023-04-21T00:26:49;68806.13;;;11.55;92.77
22930;BME280;11630;42.660;23.292;2023-04-21T00:29:19;68806.68;;;11.55;92.59
22930;BME280;11630;42.660;23.292;2023-04-21T00:31:50;68812.92;;;11.57;92.48
22930;BME280;11630;42.660;23.292;2023-04-21T00:34:21;68801.52;;;11.52;91.97
22930;BME280;11630;42.660;23.292;2023-04-21T00:36:52;68791.15;;;11.45;92.34
22930;BME280;11630;42.660;23.292;2023-04-21T00:39:22;68802.30;;;11.49;91.93
22930;BME280;11630;42.660;23.292;2023-04-21T00:41:53;68802.88;;;11.52;91.49
22930;BME280;11630;42.660;23.292;2023-04-21T00:44:23;68809.41;;;11.53;91.22
22930;BME280;11630;42.660;23.292;2023-04-21T00:46:55;68812.94;;;11.62;90.00
22930;BME280;11630;42.660;23.292;2023-04-21T00:49:26;68803.69;;;11.59;91.34
22930;BME280;11630;42.660;23.292;2023-04-21T00:51:58;68819.73;;;11.67;90.54
22930;BME280;11630;42.660;23.292;2023-04-21T00:54:28;68823.28;;;11.67;90.31
22930;BME280;11630;42.660;23.292;2023-04-21T00:56:59;68811.03;;;11.59;90.25
22930;BME280;11630;42.660;23.292;2023-04-21T00:59:30;68794.94;;;11.44;91.00
22930;BME280;11630;42.660;23.292;2023-04-21T01:02:01;68794.41;;;11.43;90.58
22930;BME280;11630;42.660;23.292;2023-04-21T01:04:32;68799.30;;;11.50;90.54
22930;BME280;11630;42.660;23.292;2023-04-21T01:07:09;68784.89;;;11.38;91.32
22930;BME280;11630;42.660;23.292;2023-04-21T01:09:41;68793.88;;;11.43;91.10
22930;BME280;11630;42.660;23.292;2023-04-21T01:12:16;68797.66;;;11.39;91.34
22930;BME280;11630;42.660;23.292;2023-04-21T01:14:46;68787.32;;;11.39;90.84
22930;BME280;11630;42.660;23.292;2023-04-21T01:17:18;68791.40;;;11.39;91.43
22930;BME280;11630;42.660;23.292;2023-04-21T01:19:48;68785.42;;;11.36;91.26
22930;BME280;11630;42.660;23.292;2023-04-21T01:22:19;68784.06;;;11.36;91.22
22930;BME280;11630;42.660;23.292;2023-04-21T01:24:51;68785.70;;;11.35;91.21
22930;BME280;11630;42.660;23.292;2023-04-21T01:27:22;68798.22;;;11.42;90.99
22930;BME280;11630;42.660;23.292;2023-04-21T01:29:52;68790.06;;;11.44;90.82
22930;BME280;11630;42.660;23.292;2023-04-21T01:32:25;68781.88;;;11.37;91.46
22930;BME280;11630;42.660;23.292;2023-04-21T01:34:57;68786.23;;;11.36;91.47
22930;BME280;11630;42.660;23.292;2023-04-21T01:37:30;68773.47;;;11.28;91.80
22930;BME280;11630;42.660;23.292;2023-04-21T01:40:01;68777.80;;;11.27;92.25
22930;BME280;11630;42.660;23.292;2023-04-21T01:42:32;68784.34;;;11.33;91.86
22930;BME280;11630;42.660;23.292;2023-04-21T01:45:03;68796.03;;;11.40;91.88
22930;BME280;11630;42.660;23.292;2023-04-21T01:47:34;68791.40;;;11.39;92.28
22930;BME280;11630;42.660;23.292;2023-04-21T01:50:05;68772.64;;;11.28;92.67
22930;BME280;11630;42.660;23.292;2023-04-21T01:52:35;68754.95;;;11.08;93.69
22930;BME280;11630;42.660;23.292;2023-04-21T01:55:06;68755.75;;;11.08;93.84
22930;BME280;11630;42.660;23.292;2023-04-21T01:57:37;68756.31;;;11.11;94.23
22930;BME280;11630;42.660;23.292;2023-04-21T02:00:09;68743.50;;;10.93;94.75
22930;BME280;11630;42.660;23.292;2023-04-21T02:02:40;68732.91;;;10.87;95.42
22930;BME280;11630;42.660;23.292;2023-04-21T02:05:11;68727.73;;;10.78;95.42
22930;BME280;11630;42.660;23.292;2023-04-21T02:07:41;68726.91;;;10.84;95.33
22930;BME280;11630;42.660;23.292;2023-04-21T02:10:13;68733.47;;;10.92;95.16
22930;BME280;11630;42.660;23.292;2023-04-21T02:12:44;68729.92;;;10.85;95.19
22930;BME280;11630;42.660;23.292;2023-04-21T02:15:15;68730.75;;;10.90;95.45
22930;BME280;11630;42.660;23.292;2023-04-21T02:17:45;68725.55;;;10.81;95.79
22930;BME280;11630;42.660;23.292;2023-04-21T02:20:16;68727.73;;;10.83;95.81
22930;BME280;11630;42.660;23.292;2023-04-21T02:22:47;68735.63;;;10.89;95.75
22930;BME280;11630;42.660;23.292;2023-04-21T02:25:18;68726.11;;;10.79;96.33
22930;BME280;11630;42.660;23.292;2023-04-21T02:27:49;68729.36;;;10.82;96.39
22930;BME280;11630;42.660;23.292;2023-04-21T02:30:20;68729.09;;;10.83;96.16
22930;BME280;11630;42.660;23.292;2023-04-21T02:32:51;68725.56;;;10.84;96.12
22930;BME280;11630;42.660;23.292;2023-04-21T02:35:22;68740.25;;;10.95;96.44
22930;BME280;11630;42.660;23.292;2023-04-21T02:37:54;68726.94;;;10.86;96.67
22930;BME280;11630;42.660;23.292;2023-04-21T02:40:25;68729.66;;;10.86;96.87
22930;BME280;11630;42.660;23.292;2023-04-21T02:42:58;68729.66;;;10.86;97.41
22930;BME280;11630;42.660;23.292;2023-04-21T02:45:30;68739.16;;;10.96;96.88
22930;BME280;11630;42.660;23.292;2023-04-21T02:48:01;68753.86;;;11.07;96.43
22930;BME280;11630;42.660;23.292;2023-04-21T02:50:31;68759.56;;;11.11;95.79
22930;BME280;11630;42.660;23.292;2023-04-21T02:53:04;68756.05;;;11.09;96.19
22930;BME280;11630;42.660;23.292;2023-04-21T02:55:33;68760.13;;;11.14;96.39
22930;BME280;11630;42.660;23.292;2023-04-21T02:58:05;68764.75;;;11.22;95.97
22930;BME280;11630;42.660;23.292;2023-04-21T03:00:36;68778.34;;;11.32;95.71
22930;BME280;11630;42.660;23.292;2023-04-21T03:03:07;68777.54;;;11.30;95.82
22930;BME280;11630;42.660;23.292;2023-04-21T03:05:37;68790.33;;;11.43;95.05
22930;BME280;11630;42.660;23.292;2023-04-21T03:08:09;68790.59;;;11.42;95.00
22930;BME280;11630;42.660;23.292;2023-04-21T03:10:39;68786.25;;;11.38;94.60
22930;BME280;11630;42.660;23.292;2023-04-21T03:13:09;68796.30;;;11.41;94.70
22930;BME280;11630;42.660;23.292;2023-04-21T03:15:40;68799.58;;;11.49;93.83
22930;BME280;11630;42.660;23.292;2023-04-21T03:18:11;68792.51;;;11.45;94.26
22930;BME280;11630;42.660;23.292;2023-04-21T03:20:42;68787.61;;;11.38;94.64
22930;BME280;11630;42.660;23.292;2023-04-21T03:23:13;68794.12;;;11.39;94.37
22930;BME280;11630;42.660;23.292;2023-04-21T03:25:44;68784.89;;;11.41;94.04
22930;BME280;11630;42.660;23.292;2023-04-21T03:28:15;68799.84;;;11.50;94.03
22930;BME280;11630;42.660;23.292;2023-04-21T03:30:47;68801.20;;;11.48;94.13
22930;BME280;11630;42.660;23.292;2023-04-21T03:33:17;68789.50;;;11.39;94.48
22930;BME280;11630;42.660;23.292;2023-04-21T03:35:49;68790.86;;;11.41;94.15
22930;BME280;11630;42.660;23.292;2023-04-21T03:38:20;68784.89;;;11.38;94.16
22930;BME280;11630;42.660;23.292;2023-04-21T03:40:54;68788.97;;;11.38;94.13
22930;BME280;11630;42.660;23.292;2023-04-21T03:43:26;68793.84;;;11.40;93.64
22930;BME280;11630;42.660;23.292;2023-04-21T03:45:57;68782.70;;;11.34;94.20
22930;BME280;11630;42.660;23.292;2023-04-21T03:48:28;68781.88;;;11.34;94.15
22930;BME280;11630;42.660;23.292;2023-04-21T03:50:59;68777.27;;;11.31;94.34
22930;BME280;11630;42.660;23.292;2023-04-21T03:53:30;68783.24;;;11.29;94.52
22930;BME280;11630;42.660;23.292;2023-04-21T03:56:01;68777.25;;;11.26;94.76
22930;BME280;11630;42.660;23.292;2023-04-21T03:58:32;68778.08;;;11.28;94.74
22930;BME280;11630;42.660;23.292;2023-04-21T04:01:06;68766.65;;;11.18;95.37
22930;BME280;11630;42.660;23.292;2023-04-21T04:03:41;68756.31;;;11.13;95.74
22930;BME280;11630;42.660;23.292;2023-04-21T04:06:11;68768.01;;;11.20;95.45
22930;BME280;11630;42.660;23.292;2023-04-21T04:08:42;68759.56;;;11.11;96.51
22930;BME280;11630;42.660;23.292;2023-04-21T04:11:13;68745.69;;;11.02;96.66
22930;BME280;11630;42.660;23.292;2023-04-21T04:13:46;68751.41;;;11.06;96.86
22930;BME280;11630;42.660;23.292;2023-04-21T04:16:18;68748.41;;;11.02;97.02
22930;BME280;11630;42.660;23.292;2023-04-21T04:18:50;68760.66;;;11.12;96.99
22930;BME280;11630;42.660;23.292;2023-04-21T04:21:21;68774.00;;;11.26;95.96
22930;BME280;11630;42.660;23.292;2023-04-21T04:23:52;68773.17;;;11.26;95.37
22930;BME280;11630;42.660;23.292;2023-04-21T04:26:23;68780.52;;;11.32;95.03
22930;BME280;11630;42.660;23.292;2023-04-21T04:28:54;68787.88;;;11.37;94.94
22930;BME280;11630;42.660;23.292;2023-04-21T04:31:25;68781.06;;;11.32;94.84
22930;BME280;11630;42.660;23.292;2023-04-21T04:33:58;68785.42;;;11.34;94.19
22930;BME280;11630;42.660;23.292;2023-04-21T04:36:28;68790.33;;;11.41;94.67
22930;BME280;11630;42.660;23.292;2023-04-21T04:38:59;68804.23;;;11.52;94.23
22930;BME280;11630;42.660;23.292;2023-04-21T04:41:29;68801.47;;;11.47;94.08
22930;BME280;11630;42.660;23.292;2023-04-21T04:44:00;68803.96;;;11.53;94.29
22930;BME280;11630;42.660;23.292;2023-04-21T04:46:30;68797.97;;;11.55;94.37
22930;BME280;11630;42.660;23.292;2023-04-21T04:49:02;68816.20;;;11.63;94.10
22930;BME280;11630;42.660;23.292;2023-04-21T04:51:32;68826.00;;;11.69;93.48
22930;BME280;11630;42.660;23.292;2023-04-21T04:54:03;68830.91;;;11.79;92.59
22930;BME280;11630;42.660;23.292;2023-04-21T04:56:34;68834.98;;;11.79;92.71
22930;BME280;11630;42.660;23.292;2023-04-21T04:59:05;68831.17;;;11.73;92.71
22930;BME280;11630;42.660;23.292;2023-04-21T05:01:36;68832.00;;;11.80;92.79
22930;BME280;11630;42.660;23.292;2023-04-21T05:04:07;68827.36;;;11.77;93.27
22930;BME280;11630;42.660;23.292;2023-04-21T05:06:37;68837.99;;;11.83;93.06
22930;BME280;11630;42.660;23.292;2023-04-21T05:09:08;68837.99;;;11.83;93.26
22930;BME280;11630;42.660;23.292;2023-04-21T05:11:42;68834.18;;;11.87;93.45
22930;BME280;11630;42.660;23.292;2023-04-21T05:14:10;68842.89;;;11.90;93.48
22930;BME280;11630;42.660;23.292;2023-04-21T05:16:45;68858.95;;;12.03;92.67
22930;BME280;11630;42.660;23.292;2023-04-21T05:19:16;68857.58;;;12.06;92.28
22930;BME280;11630;42.660;23.292;2023-04-21T05:21:47;68860.30;;;12.06;92.12
22930;BME280;11630;42.660;23.292;2023-04-21T05:24:18;68867.39;;;12.10;92.62
22930;BME280;11630;42.660;23.292;2023-04-21T05:26:49;68875.28;;;12.21;92.77
22930;BME280;11630;42.660;23.292;2023-04-21T05:29:19;68884.00;;;12.26;92.88
22930;BME280;11630;42.660;23.292;2023-04-21T05:31:50;68873.66;;;12.22;92.81
22930;BME280;11630;42.660;23.292;2023-04-21T05:34:21;68879.66;;;12.25;93.20
22930;BME280;11630;42.660;23.292;2023-04-21T05:36:52;68881.29;;;12.16;93.98
22930;BME280;11630;42.660;23.292;2023-04-21T05:39:23;68888.64;;;12.31;93.38
22930;BME280;11630;42.660;23.292;2023-04-21T05:41:54;68889.18;;;12.27;93.62
22930;BME280;11630;42.660;23.292;2023-04-21T05:44:24;68882.38;;;12.25;93.17
22930;BME280;11630;42.660;23.292;2023-04-21T05:46:57;68897.09;;;12.40;93.08
22930;BME280;11630;42.660;23.292;2023-04-21T05:49:28;68910.16;;;12.45;92.63
22930;BME280;11630;42.660;23.292;2023-04-21T05:51:59;68921.05;;;12.57;92.51
22930;BME280;11630;42.660;23.292;2023-04-21T05:54:29;68928.95;;;12.68;91.68
22930;BME280;11630;42.660;23.292;2023-04-21T05:57:00;68942.30;;;12.77;91.06
22930;BME280;11630;42.660;23.292;2023-04-21T05:59:31;68946.41;;;12.82;90.90
22930;BME280;11630;42.660;23.292;2023-04-21T06:02:03;68938.48;;;12.73;90.96
22930;BME280;11630;42.660;23.292;2023-04-21T06:04:35;68938.22;;;12.74;91.85
22930;BME280;11630;42.660;23.292;2023-04-21T06:07:07;68942.31;;;12.82;91.34
22930;BME280;11630;42.660;23.292;2023-04-21T06:09:37;68931.41;;;12.72;91.30
22930;BME280;11630;42.660;23.292;2023-04-21T06:12:08;68954.32;;;12.90;91.23
22930;BME280;11630;42.660;23.292;2023-04-21T06:14:39;68951.60;;;12.88;91.87
22930;BME280;11630;42.660;23.292;2023-04-21T06:17:14;68948.56;;;12.84;91.41
22930;BME280;11630;42.660;23.292;2023-04-21T06:19:42;68945.03;;;12.87;91.67
22930;BME280;11630;42.660;23.292;2023-04-21T06:22:13;68985.41;;;13.18;90.75
22930;BME280;11630;42.660;23.292;2023-04-21T06:24:44;68999.02;;;13.31;89.37
22930;BME280;11630;42.660;23.292;2023-04-21T06:27:17;69003.94;;;13.38;88.77
22930;BME280;11630;42.660;23.292;2023-04-21T06:29:47;69010.47;;;13.39;88.66
22930;BME280;11630;42.660;23.292;2023-04-21T06:32:19;69068.28;;;13.91;86.78
22930;BME280;11630;42.660;23.292;2023-04-21T06:34:49;69046.20;;;13.73;87.17
22930;BME280;11630;42.660;23.292;2023-04-21T06:37:20;69099.15;;;14.18;86.31
22930;BME280;11630;42.660;23.292;2023-04-21T06:39:51;69040.75;;;13.70;86.27
22930;BME280;11630;42.660;23.292;2023-04-21T06:42:21;69044.30;;;13.75;85.80
22930;BME280;11630;42.660;23.292;2023-04-21T06:44:52;69000.11;;;13.32;88.03
22930;BME280;11630;42.660;23.292;2023-04-21T06:47:23;69007.20;;;13.41;88.41
22930;BME280;11630;42.660;23.292;2023-04-21T06:49:57;69080.84;;;14.00;86.34
22930;BME280;11630;42.660;23.292;2023-04-21T06:52:28;69104.60;;;14.23;84.20
22930;BME280;11630;42.660;23.292;2023-04-21T06:54:59;69089.31;;;14.14;84.86
22930;BME280;11630;42.660;23.292;2023-04-21T06:57:30;69078.91;;;14.10;83.65
22930;BME280;11630;42.660;23.292;2023-04-21T07:00:01;69050.83;;;13.83;84.40
22930;BME280;11630;42.660;23.292;2023-04-21T07:02:32;69044.02;;;13.71;85.67
22930;BME280;11630;42.660;23.292;2023-04-21T07:05:04;69042.39;;;13.67;85.88
22930;BME280;11630;42.660;23.292;2023-04-21T07:07:35;69065.83;;;13.88;85.66
22930;BME280;11630;42.660;23.292;2023-04-21T07:10:06;69046.75;;;13.78;86.09
22930;BME280;11630;42.660;23.292;2023-04-21T07:12:36;69048.38;;;13.67;86.03
22930;BME280;11630;42.660;23.292;2023-04-21T07:15:08;69051.38;;;13.79;85.99
22930;BME280;11630;42.660;23.292;2023-04-21T07:17:39;69040.46;;;13.69;86.41
22930;BME280;11630;42.660;23.292;2023-04-21T07:20:09;69029.56;;;13.61;86.71
22930;BME280;11630;42.660;23.292;2023-04-21T07:22:40;69081.66;;;14.05;84.88
22930;BME280;11630;42.660;23.292;2023-04-21T07:25:10;69107.59;;;14.32;82.96
22930;BME280;11630;42.660;23.292;2023-04-21T07:27:41;69163.28;;;14.78;80.64
22930;BME280;11630;42.660;23.292;2023-04-21T07:30:15;69250.41;;;15.58;76.50
22930;BME280;11630;42.660;23.292;2023-04-21T07:32:46;69208.88;;;15.21;77.36
22930;BME280;11630;42.660;23.292;2023-04-21T07:35:18;69234.28;;;15.47;76.17
22930;BME280;11630;42.660;23.292;2023-04-21T07:37:49;69286.73;;;15.90;74.64
22930;BME280;11630;42.660;23.292;2023-04-21T07:40:20;69196.32;;;15.07;75.74
22930;BME280;11630;42.660;23.292;2023-04-21T07:42:50;69163.81;;;14.83;78.01
22930;BME280;11630;42.660;23.292;2023-04-21T07:45:23;69186.20;;;15.01;78.13
22930;BME280;11630;42.660;23.292;2023-04-21T07:47:54;69213.52;;;15.19;76.65
22930;BME280;11630;42.660;23.292;2023-04-21T07:50:24;69260.23;;;15.67;73.57
22930;BME280;11630;42.660;23.292;2023-04-21T07:52:55;69255.32;;;15.65;73.86
22930;BME280;11630;42.660;23.292;2023-04-21T07:55:25;69259.43;;;15.65;72.06
22930;BME280;11630;42.660;23.292;2023-04-21T07:57:57;69254.77;;;15.62;72.30
22930;BME280;11630;42.660;23.292;2023-04-21T08:00:29;69212.45;;;15.25;73.18
22930;BME280;11630;42.660;23.292;2023-04-21T08:02:59;69269.25;;;15.79;72.16
22930;BME280;11630;42.660;23.292;2023-04-21T08:05:30;69335.70;;;16.31;69.25
22930;BME280;11630;42.660;23.292;2023-04-21T08:08:01;69357.28;;;16.54;67.02
22930;BME280;11630;42.660;23.292;2023-04-21T08:10:31;69369.30;;;16.68;66.12
22930;BME280;11630;42.660;23.292;2023-04-21T08:13:02;69377.53;;;16.68;66.45
22930;BME280;11630;42.660;23.292;2023-04-21T08:15:34;69325.55;;;16.25;67.10
22930;BME280;11630;42.660;23.292;2023-04-21T08:18:04;69308.89;;;16.09;68.47
22930;BME280;11630;42.660;23.292;2023-04-21T08:20:36;69320.90;;;16.20;68.50
22930;BME280;11630;42.660;23.292;2023-04-21T08:23:07;69376.41;;;16.72;66.00
22930;BME280;11630;42.660;23.292;2023-04-21T08:25:41;69288.11;;;15.95;69.46
22930;BME280;11630;42.660;23.292;2023-04-21T08:28:12;69276.09;;;15.79;69.71
22930;BME280;11630;42.660;23.292;2023-04-21T08:30:42;69282.64;;;15.88;68.90
22930;BME280;11630;42.660;23.292;2023-04-21T08:33:13;69369.88;;;16.61;66.82
22930;BME280;11630;42.660;23.292;2023-04-21T08:35:44;69369.58;;;16.67;64.89
22930;BME280;11630;42.660;23.292;2023-04-21T08:38:15;69418.81;;;17.09;63.96
22930;BME280;11630;42.660;23.292;2023-04-21T08:40:46;69468.89;;;17.58;62.31
22930;BME280;11630;42.660;23.292;2023-04-21T08:43:17;69431.95;;;17.18;61.98
22930;BME280;11630;42.660;23.292;2023-04-21T08:45:54;69379.16;;;16.77;62.17
22930;BME280;11630;42.660;23.292;2023-04-21T08:48:25;69364.67;;;16.60;63.42
22930;BME280;11630;42.660;23.292;2023-04-21T08:50:58;69373.13;;;16.74;63.43
22930;BME280;11630;42.660;23.292;2023-04-21T08:53:29;69322.55;;;16.24;65.03
22930;BME280;11630;42.660;23.292;2023-04-21T08:56:05;69296.28;;;16.05;65.55
22930;BME280;11630;42.660;23.292;2023-04-21T08:58:36;69375.89;;;16.69;63.93
22930;BME280;11630;42.660;23.292;2023-04-21T09:01:06;69391.73;;;16.88;62.07
22930;BME280;11630;42.660;23.292;2023-04-21T09:03:39;69462.58;;;17.56;60.57
22930;BME280;11630;42.660;23.292;2023-04-21T09:06:11;69483.39;;;17.70;59.40
22930;BME280;11630;42.660;23.292;2023-04-21T09:08:51;69590.49;;;18.58;56.38
22930;BME280;11630;42.660;23.292;2023-04-21T09:11:14;69606.66;;;18.69;53.92
22930;BME280;11630;42.660;23.292;2023-04-21T09:13:45;69635.67;;;19.03;53.38
22930;BME280;11630;42.660;23.292;2023-04-21T09:16:19;69494.08;;;17.76;56.92
22930;BME280;11630;42.660;23.292;2023-04-21T09:18:51;69500.07;;;17.86;57.64
22930;BME280;11630;42.660;23.292;2023-04-21T09:21:26;69543.34;;;18.26;56.05
22930;BME280;11630;42.660;23.292;2023-04-21T09:23:54;69560.04;;;18.40;54.65
22930;BME280;11630;42.660;23.292;2023-04-21T09:26:25;69552.11;;;18.31;53.75
22930;BME280;11630;42.660;23.292;2023-04-21T09:28:57;69503.34;;;17.92;54.91
22930;BME280;11630;42.660;23.292;2023-04-21T09:31:28;69592.42;;;18.56;53.38
22930;BME280;11630;42.660;23.292;2023-04-21T09:34:00;69624.46;;;18.89;52.57
22930;BME280;11630;42.660;23.292;2023-04-21T09:36:31;69669.67;;;19.34;49.84
22930;BME280;11630;42.660;23.292;2023-04-21T09:39:03;69681.20;;;19.42;49.78
22930;BME280;11630;42.660;23.292;2023-04-21T09:41:35;69748.02;;;20.15;48.15
22930;BME280;11630;42.660;23.292;2023-04-21T09:44:05;69678.69;;;19.46;48.51
22930;BME280;11630;42.660;23.292;2023-04-21T09:46:43;69610.16;;;18.86;50.41
22930;BME280;11630;42.660;23.292;2023-04-21T09:49:17;69567.51;;;18.35;53.60
22930;BME280;11630;42.660;23.292;2023-04-21T09:51:49;69492.69;;;17.78;54.13
22930;BME280;11630;42.660;23.292;2023-04-21T09:54:21;69459.04;;;17.44;54.80
22930;BME280;11630;42.660;23.292;2023-04-21T09:56:53;69442.63;;;17.29;54.25
22930;BME280;11630;42.660;23.292;2023-04-21T09:59:37;69431.38;;;17.25;55.05
22930;BME280;11630;42.660;23.292;2023-04-21T10:02:00;69514.02;;;18.00;53.89
22930;BME280;11630;42.660;23.292;2023-04-21T10:04:32;69603.05;;;18.77;50.60
22930;BME280;11630;42.660;23.292;2023-04-21T10:07:03;69769.54;;;20.14;47.55
22930;BME280;11630;42.660;23.292;2023-04-21T10:09:45;69867.30;;;20.93;44.82
22930;BME280;11630;42.660;23.292;2023-04-21T10:12:16;69791.61;;;20.56;45.65
22930;BME280;11630;42.660;23.292;2023-04-21T10:14:51;69742.88;;;19.99;47.02
22930;BME280;11630;42.660;23.292;2023-04-21T10:17:25;69725.39;;;19.71;46.33
22930;BME280;11630;42.660;23.292;2023-04-21T10:19:57;69669.13;;;19.31;46.21
22930;BME280;11630;42.660;23.292;2023-04-21T10:22:32;69691.05;;;19.53;46.77
22930;BME280;11630;42.660;23.292;2023-04-21T10:25:00;69584.71;;;18.59;48.14
22930;BME280;11630;42.660;23.292;2023-04-21T10:27:41;69491.33;;;17.76;50.58
22930;BME280;11630;42.660;23.292;2023-04-21T10:30:22;69474.11;;;17.54;52.51
22930;BME280;11630;42.660;23.292;2023-04-21T10:33:03;69482.03;;;17.63;53.25
22930;BME280;11630;42.660;23.292;2023-04-21T10:36:00;69431.11;;;17.24;53.46
22930;BME280;11630;42.660;23.292;2023-04-21T10:38:41;69457.39;;;17.45;52.49
22930;BME280;11630;42.660;23.292;2023-04-21T10:41:33;69459.31;;;17.48;51.63
22930;BME280;11630;42.660;23.292;2023-04-21T10:44:16;69460.13;;;17.48;51.41
22930;BME280;11630;42.660;23.292;2023-04-21T10:46:51;69498.18;;;17.78;50.98
22930;BME280;11630;42.660;23.292;2023-04-21T10:49:26;69533.18;;;18.18;50.32
22930;BME280;11630;42.660;23.292;2023-04-21T10:52:02;69443.42;;;17.36;52.25
22930;BME280;11630;42.660;23.292;2023-04-21T10:57:26;69440.16;;;17.23;53.68
22930;BME280;11630;42.660;23.292;2023-04-21T10:59:57;69467.80;;;17.55;53.13
22930;BME280;11630;42.660;23.292;2023-04-21T11:02:28;69465.05;;;17.52;52.18
22930;BME280;11630;42.660;23.292;2023-04-21T11:04:59;69461.21;;;17.51;52.60
22930;BME280;11630;42.660;23.292;2023-04-21T11:07:29;69466.14;;;17.58;52.80
22930;BME280;11630;42.660;23.292;2023-04-21T11:10:04;69489.98;;;17.71;52.52
22930;BME280;11630;42.660;23.292;2023-04-21T11:12:38;69460.41;;;17.44;51.48
22930;BME280;11630;42.660;23.292;2023-04-21T11:15:09;69486.41;;;17.69;52.18
22930;BME280;11630;42.660;23.292;2023-04-21T11:17:40;69546.12;;;18.21;50.42
22930;BME280;11630;42.660;23.292;2023-04-21T11:20:11;69583.89;;;18.57;48.60
22930;BME280;11630;42.660;23.292;2023-04-21T11:22:42;69565.27;;;18.41;46.73
22930;BME280;11630;42.660;23.292;2023-04-21T11:25:20;69586.63;;;18.60;46.99
22930;BME280;11630;42.660;23.292;2023-04-21T11:27:55;69596.78;;;18.65;48.23
22930;BME280;11630;42.660;23.292;2023-04-21T11:30:33;69607.17;;;18.77;48.71
22930;BME280;11630;42.660;23.292;2023-04-21T11:33:08;69533.52;;;18.07;50.27
22930;BME280;11630;42.660;23.292;2023-04-21T11:35:40;69570.52;;;18.37;49.49
22930;BME280;11630;42.660;23.292;2023-04-21T11:38:11;69541.15;;;18.19;47.46
22930;BME280;11630;42.660;23.292;2023-04-21T11:40:45;69511.63;;;17.87;47.87
22930;BME280;11630;42.660;23.292;2023-04-21T11:43:16;69483.11;;;17.71;49.53
22930;BME280;11630;42.660;23.292;2023-04-21T11:45:50;69455.50;;;17.37;51.28
22930;BME280;11630;42.660;23.292;2023-04-21T11:48:21;69425.39;;;17.12;51.56
22930;BME280;11630;42.660;23.292;2023-04-21T11:50:51;69410.33;;;17.02;51.34
22930;BME280;11630;42.660;23.292;2023-04-21T11:53:23;69411.16;;;16.99;51.13
22930;BME280;11630;42.660;23.292;2023-04-21T11:55:52;69413.59;;;17.10;51.11
22930;BME280;11630;42.660;23.292;2023-04-21T11:58:23;69431.16;;;17.11;49.79
22930;BME280;11630;42.660;23.292;2023-04-21T12:00:54;69391.19;;;16.85;49.55
22930;BME280;11630;42.660;23.292;2023-04-21T12:03:26;69408.69;;;17.01;49.73
22930;BME280;11630;42.660;23.292;2023-04-21T12:05:59;69429.20;;;17.28;49.87
22930;BME280;11630;42.660;23.292;2023-04-21T12:08:32;69453.30;;;17.40;49.44
22930;BME280;11630;42.660;23.292;2023-04-21T12:11:02;69460.42;;;17.47;49.48
22930;BME280;11630;42.660;23.292;2023-04-21T12:13:33;69450.01;;;17.37;49.47
22930;BME280;11630;42.660;23.292;2023-04-21T12:16:04;69454.66;;;17.43;48.54
22930;BME280;11630;42.660;23.292;2023-04-21T12:18:36;69480.08;;;17.70;47.62
22930;BME280;11630;42.660;23.292;2023-04-21T12:21:06;69456.86;;;17.45;47.84
22930;BME280;11630;42.660;23.292;2023-04-21T12:23:37;69492.17;;;17.73;47.61
22930;BME280;11630;42.660;23.292;2023-04-21T12:26:08;69474.63;;;17.62;48.08
22930;BME280;11630;42.660;23.292;2023-04-21T12:28:39;69510.25;;;17.87;47.25
22930;BME280;11630;42.660;23.292;2023-04-21T12:31:10;69501.73;;;17.83;47.93
22930;BME280;11630;42.660;23.292;2023-04-21T12:33:40;69521.73;;;18.00;47.39
22930;BME280;11630;42.660;23.292;2023-04-21T12:36:10;69554.62;;;18.27;47.28
22930;BME280;11630;42.660;23.292;2023-04-21T12:38:42;69580.08;;;18.52;46.48
22930;BME280;11630;42.660;23.292;2023-04-21T12:41:13;69547.49;;;18.21;47.20
22930;BME280;11630;42.660;23.292;2023-04-21T12:43:44;69588.06;;;18.50;46.79
22930;BME280;11630;42.660;23.292;2023-04-21T12:46:14;69530.48;;;18.08;47.20
22930;BME280;11630;42.660;23.292;2023-04-21T12:48:46;69478.75;;;17.62;47.46
22930;BME280;11630;42.660;23.292;2023-04-21T12:51:17;69474.91;;;17.61;47.52
22930;BME280;11630;42.660;23.292;2023-04-21T12:53:49;69456.29;;;17.49;47.41
22930;BME280;11630;42.660;23.292;2023-04-21T12:56:21;69478.72;;;17.67;47.01
22930;BME280;11630;42.660;23.292;2023-04-21T12:58:52;69501.45;;;17.84;46.66
22930;BME280;11630;42.660;23.292;2023-04-21T13:01:23;69485.58;;;17.70;47.05
22930;BME280;11630;42.660;23.292;2023-04-21T13:03:54;69468.88;;;17.56;47.72
22930;BME280;11630;42.660;23.292;2023-04-21T13:06:24;69496.80;;;17.78;47.17
22930;BME280;11630;42.660;23.292;2023-04-21T13:08:55;69466.95;;;17.58;48.10
22930;BME280;11630;42.660;23.292;2023-04-21T13:11:26;69512.41;;;17.94;48.01
22930;BME280;11630;42.660;23.292;2023-04-21T13:13:57;69546.63;;;18.29;48.17
22930;BME280;11630;42.660;23.292;2023-04-21T13:16:28;69595.66;;;18.69;48.08